Time;durP1;ratioP1;P1;durP2;ratioP2;P2;SDS_P1;SDS_P2;PMS_P1;PMS_P2;Temp;Humidity;BMP_temperature;BMP_pressure;BME280_temperature;BME280_humidity;BME280_pressure;Samples;Min_cycle;Max_cycle;Signal;HPM_P1;HPM_P2
2021/10/15 00:00:46;;;;;;;17.67;10.93;;;;;;;-139.48;100.00;61774.03;4976726;28;20054;-69
2021/10/15 00:03:30;;;;;;;16.92;10.60;;;;;;;-139.48;100.00;61774.03;4977431;28;20088;-69
2021/10/15 00:06:14;;;;;;;;;;;;;;;-139.48;100.00;61774.03;4963337;28;20050;-69
2021/10/15 00:08:58;;;;;;;25.20;15.10;;;;;;;-139.48;100.00;61774.03;4976923;28;19921;-69
2021/10/15 00:11:45;;;;;;;22.92;12.82;;;;;;;-139.48;100.00;61774.03;4976289;28;20053;-69
2021/10/15 00:14:28;;;;;;;22.63;13.27;;;;;;;-139.48;100.00;61774.03;4976524;28;20123;-69
2021/10/15 00:17:12;;;;;;;18.90;11.18;;;;;;;-139.48;100.00;61774.03;4961749;28;20110;-69
2021/10/15 00:19:56;;;;;;;23.23;14.43;;;;;;;-139.48;100.00;61774.03;4976125;28;20069;-69
2021/10/15 00:22:40;;;;;;;23.52;14.73;;;;;;;-139.48;100.00;61774.03;4976081;28;20058;-69
2021/10/15 00:25:24;;;;;;;19.40;10.55;;;;;;;-139.48;100.00;61774.03;4976450;28;20090;-69
2021/10/15 00:28:09;;;;;;;19.55;12.60;;;;;;;-139.48;100.00;61774.03;4977199;28;20142;-69
2021/10/15 00:30:56;;;;;;;;;;;;;;;-139.48;100.00;61774.03;4977247;28;20133;-69
2021/10/15 00:33:40;;;;;;;14.35;9.85;;;;;;;-139.48;100.00;61774.03;4975899;28;19921;-69
2021/10/15 00:36:24;;;;;;;22.60;11.70;;;;;;;-139.48;100.00;61774.03;4976008;28;20054;-69
2021/10/15 00:39:08;;;;;;;18.98;11.95;;;;;;;-139.48;100.00;61774.03;4976039;28;20097;-69
2021/10/15 00:41:52;;;;;;;24.50;14.38;;;;;;;-139.48;100.00;61774.03;4976993;28;20089;-69
2021/10/15 00:44:37;;;;;;;20.63;12.50;;;;;;;-139.48;100.00;61774.03;4976642;28;20082;-69
2021/10/15 00:47:21;;;;;;;17.02;10.65;;;;;;;-139.48;100.00;61774.03;4975816;28;20109;-69
2021/10/15 00:50:06;;;;;;;12.93;9.07;;;;;;;-139.48;100.00;61774.03;4976805;28;20054;-69
2021/10/15 00:52:50;;;;;;;14.00;9.80;;;;;;;-139.48;100.00;61774.03;4962105;28;20053;-69
2021/10/15 00:55:34;;;;;;;16.55;10.50;;;;;;;-139.48;100.00;61774.03;4975459;28;20046;-69
2021/10/15 00:58:18;;;;;;;13.63;10.13;;;;;;;-139.48;100.00;61774.03;4962022;28;20054;-69
2021/10/15 01:01:02;;;;;;;11.60;8.77;;;;;;;-139.48;100.00;61774.03;4976363;28;20136;-69
2021/10/15 01:03:47;;;;;;;15.10;10.32;;;;;;;-139.48;100.00;61774.03;4976542;28;20506;-69
2021/10/15 01:06:32;;;;;;;17.25;9.52;;;;;;;-139.48;100.00;61774.03;4961796;28;20053;-69
2021/10/15 01:09:18;;;;;;;16.75;10.30;;;;;;;-139.48;100.00;61774.03;4975503;28;20058;-69
2021/10/15 01:12:04;;;;;;;14.38;10.15;;;;;;;-139.48;100.00;61774.03;4975177;28;20049;-69
2021/10/15 01:14:47;;;;;;;21.02;11.40;;;;;;;-139.48;100.00;61774.03;4961717;28;20045;-69
2021/10/15 01:17:31;;;;;;;14.98;9.73;;;;;;;-139.48;100.00;61774.03;4975646;28;20046;-69
2021/10/15 01:20:16;;;;;;;12.43;9.32;;;;;;;-139.48;100.00;61774.03;4976095;28;20419;-69
2021/10/15 01:22:59;;;;;;;15.73;10.13;;;;;;;-139.48;100.00;61774.03;4975261;28;20604;-69
2021/10/15 01:25:43;;;;;;;16.10;9.88;;;;;;;-139.48;100.00;61774.03;4975830;28;20101;-69
2021/10/15 01:28:28;;;;;;;;;;;;;;;-139.48;100.00;61774.03;4989092;28;20058;-69
2021/10/15 01:31:12;;;;;;;;;;;;;;;-139.48;100.00;61774.03;4975416;28;20024;-69
2021/10/15 01:33:57;;;;;;;14.20;10.60;;;;;;;-139.48;100.00;61774.03;4961396;28;19921;-69
2021/10/15 01:36:41;;;;;;;14.07;9.23;;;;;;;-139.48;100.00;61774.03;4974892;28;20260;-69
2021/10/15 01:39:25;;;;;;;15.75;10.07;;;;;;;-139.48;100.00;61774.03;4974648;28;20070;-69
2021/10/15 01:42:53;;;;;;;13.23;9.15;;;;;;;-139.48;100.00;61774.03;4961187;28;20046;-69
2021/10/15 01:45:13;;;;;;;18.88;11.50;;;;;;;-139.48;100.00;61774.03;4975586;28;20073;-69
2021/10/15 01:47:57;;;;;;;22.15;13.25;;;;;;;-139.48;100.00;61774.03;4975762;28;20122;-69
2021/10/15 01:50:41;;;;;;;14.75;9.88;;;;;;;-139.48;100.00;61774.03;4974948;28;20042;-69
2021/10/15 01:53:25;;;;;;;20.30;13.07;;;;;;;-139.48;100.00;61774.03;4974740;28;20511;-69
2021/10/15 01:56:09;;;;;;;14.88;10.40;;;;;;;-139.48;100.00;61774.03;4975316;28;20101;-69
2021/10/15 01:58:53;;;;;;;13.40;9.27;;;;;;;-139.48;100.00;61774.03;4960907;28;20101;-69
2021/10/15 02:01:37;;;;;;;17.42;8.80;;;;;;;-139.48;100.00;61774.03;4975369;28;20049;-69
2021/10/15 02:04:21;;;;;;;12.20;8.35;;;;;;;-139.48;100.00;61774.03;4974743;28;20408;-69
2021/10/15 02:07:05;;;;;;;14.48;9.40;;;;;;;-139.48;100.00;61774.03;4975337;28;20053;-69
2021/10/15 02:09:49;;;;;;;15.60;9.95;;;;;;;-139.48;100.00;61774.03;4974269;28;20057;-69
2021/10/15 02:12:33;;;;;;;13.02;9.55;;;;;;;-139.48;100.00;61774.03;4987994;28;20475;-69
2021/10/15 02:15:17;;;;;;;18.13;11.05;;;;;;;-139.48;100.00;61774.03;4987922;28;20420;-69
2021/10/15 02:18:01;;;;;;;27.88;15.95;;;;;;;-139.48;100.00;61774.03;4974049;28;20538;-69
2021/10/15 02:20:45;;;;;;;33.30;18.33;;;;;;;-139.48;100.00;61774.03;4974190;28;20053;-69
2021/10/15 02:23:29;;;;;;;26.88;14.68;;;;;;;-139.48;100.00;61774.03;4974157;28;20050;-69
2021/10/15 02:26:19;;;;;;;19.92;12.18;;;;;;;-139.48;100.00;61774.03;4974086;28;20092;-69
2021/10/15 02:29:03;;;;;;;21.98;12.88;;;;;;;-139.48;100.00;61774.03;4974147;28;20129;-69
2021/10/15 02:31:47;;;;;;;19.42;11.88;;;;;;;-139.48;100.00;61774.03;4973940;28;20093;-69
2021/10/15 02:34:32;;;;;;;18.50;11.35;;;;;;;-139.48;100.00;61774.03;4973805;28;20101;-69
2021/10/15 02:37:16;;;;;;;21.90;13.38;;;;;;;-139.48;100.00;61774.03;4960195;28;20054;-69
2021/10/15 02:40:00;;;;;;;18.90;12.23;;;;;;;-139.48;100.00;61774.03;4960186;28;20412;-69
2021/10/15 02:42:43;;;;;;;23.73;13.38;;;;;;;-139.48;100.00;61774.03;4959973;28;20074;-69
2021/10/15 02:45:27;;;;;;;23.10;14.23;;;;;;;-139.48;100.00;61774.03;4959848;28;20050;-69
2021/10/15 02:48:11;;;;;;;27.77;16.45;;;;;;;-139.48;100.00;61774.03;4973843;28;20081;-69
2021/10/15 02:50:55;;;;;;;33.08;18.35;;;;;;;-139.48;100.00;61774.03;4973414;28;20097;-69
2021/10/15 02:53:39;;;;;;;32.58;16.75;;;;;;;-139.48;100.00;61774.03;4959811;28;20053;-69
2021/10/15 02:56:23;;;;;;;30.23;17.42;;;;;;;-139.48;100.00;61774.03;4974299;28;20105;-69
2021/10/15 02:59:07;;;;;;;25.15;16.88;;;;;;;-139.48;100.00;61774.03;4974821;28;20054;-69
2021/10/15 03:01:51;;;;;;;22.63;14.55;;;;;;;-139.48;100.00;61774.03;4960029;28;20130;-69
2021/10/15 03:04:35;;;;;;;25.50;14.88;;;;;;;-139.48;100.00;61774.03;4974344;28;20169;-69
2021/10/15 03:07:19;;;;;;;22.85;15.32;;;;;;;-139.48;100.00;61774.03;4973303;28;20053;-69
2021/10/15 03:10:05;;;;;;;21.65;12.63;;;;;;;-139.48;100.00;61774.03;4973378;28;20420;-69
2021/10/15 03:12:49;;;;;;;27.90;15.52;;;;;;;-139.48;100.00;61774.03;4959794;28;20216;-69
2021/10/15 03:15:33;;;;;;;23.77;14.57;;;;;;;-139.48;100.00;61774.03;4974139;28;20129;-69
2021/10/15 03:18:17;;;;;;;27.58;15.93;;;;;;;-139.48;100.00;61774.03;4974303;28;20054;-69
2021/10/15 03:21:01;;;;;;;22.75;15.02;;;;;;;-139.48;100.00;61774.03;4973767;28;20050;-69
2021/10/15 03:23:45;;;;;;;25.02;15.60;;;;;;;-139.48;100.00;61774.03;4973207;28;20058;-68
2021/10/15 03:26:29;;;;;;;21.88;14.70;;;;;;;-139.48;100.00;61774.03;4973190;28;20093;-69
2021/10/15 03:29:13;;;;;;;20.98;14.82;;;;;;;-139.48;100.00;61774.03;4974102;28;20121;-69
2021/10/15 03:31:57;;;;;;;25.38;15.98;;;;;;;-139.48;100.00;61774.03;4974310;28;20101;-69
2021/10/15 03:34:40;;;;;;;26.65;16.33;;;;;;;-139.48;100.00;61774.03;4973162;28;20151;-69
2021/10/15 03:37:24;;;;;;;21.10;15.07;;;;;;;-139.48;100.00;61774.03;4973538;28;20049;-69
2021/10/15 03:40:09;;;;;;;24.48;14.95;;;;;;;-139.48;100.00;61774.03;4974319;28;20069;-69
2021/10/15 03:42:53;;;;;;;23.75;15.80;;;;;;;-139.48;100.00;61774.03;4973246;28;20574;-69
2021/10/15 03:45:37;;;;;;;25.08;16.08;;;;;;;-139.48;100.00;61774.03;4959541;28;20050;-69
2021/10/15 03:48:20;;;;;;;24.73;15.23;;;;;;;-139.48;100.00;61774.03;4973004;28;20101;-69
2021/10/15 03:51:04;;;;;;;20.88;14.40;;;;;;;-139.48;100.00;61774.03;4973008;28;20053;-68
2021/10/15 03:53:48;;;;;;;27.08;15.45;;;;;;;-139.48;100.00;61774.03;4963337;28;20515;-69
2021/10/15 03:56:32;;;;;;;24.02;16.02;;;;;;;-139.48;100.00;61774.03;4976397;28;20057;-69
2021/10/15 03:59:16;;;;;;;25.05;15.57;;;;;;;-139.48;100.00;61774.03;4962909;28;20045;-69
2021/10/15 04:02:00;;;;;;;29.73;17.55;;;;;;;-139.48;100.00;61774.03;4962796;28;20459;-69
2021/10/15 04:04:44;;;;;;;22.83;15.10;;;;;;;-139.48;100.00;61774.03;4976688;28;20420;-69
2021/10/15 04:07:28;;;;;;;24.85;15.68;;;;;;;-139.48;100.00;61774.03;4977461;28;20049;-69
2021/10/15 04:10:12;;;;;;;23.70;15.38;;;;;;;-139.48;100.00;61774.03;4976316;28;20495;-69
2021/10/15 04:12:56;;;;;;;23.52;16.17;;;;;;;-139.48;100.00;61774.03;4976190;28;20050;-69
2021/10/15 04:15:40;;;;;;;;;;;;;;;-139.48;100.00;61774.03;4977792;28;20057;-69
2021/10/15 04:18:24;;;;;;;24.53;15.47;;;;;;;-139.48;100.00;61774.03;4976164;28;19921;-69
2021/10/15 04:21:08;;;;;;;;;;;;;;;-139.48;100.00;61774.03;4977733;28;20046;-69
2021/10/15 04:23:52;;;;;;;23.88;14.73;;;;;;;-139.48;100.00;61774.03;4976067;28;20024;-69
2021/10/15 04:26:36;;;;;;;23.58;14.73;;;;;;;-139.48;100.00;61774.03;4976259;28;20143;-69
2021/10/15 04:29:20;;;;;;;27.58;15.50;;;;;;;-139.48;100.00;61774.03;4977238;28;20551;-69
2021/10/15 04:32:04;;;;;;;28.05;16.05;;;;;;;-139.48;100.00;61774.03;4976978;28;20074;-68
2021/10/15 04:34:48;;;;;;;26.48;15.38;;;;;;;-139.48;100.00;61774.03;4976864;28;20049;-69
2021/10/15 04:37:32;;;;;;;21.98;15.23;;;;;;;-139.48;100.00;61774.03;4976338;28;20058;-69
2021/10/15 04:40:17;;;;;;;21.13;14.70;;;;;;;-139.48;100.00;61774.03;4977010;28;20042;-69
2021/10/15 04:43:01;;;;;;;25.08;15.95;;;;;;;-139.48;100.00;61774.03;4975701;28;20045;-69
2021/10/15 04:45:45;;;;;;;25.88;16.75;;;;;;;-139.48;100.00;61774.03;4975838;28;20054;-69
2021/10/15 04:48:29;;;;;;;23.30;14.90;;;;;;;-139.48;100.00;61774.03;4975922;28;20101;-69
2021/10/15 04:51:13;;;;;;;22.15;14.30;;;;;;;-139.48;100.00;61774.03;4976774;28;20057;-69
2021/10/15 04:53:57;;;;;;;22.50;14.70;;;;;;;-139.48;100.00;61774.03;4975834;28;20093;-69
2021/10/15 04:56:40;;;;;;;27.40;15.23;;;;;;;-139.48;100.00;61774.03;4975406;28;20420;-69
2021/10/15 04:59:24;;;;;;;27.20;15.23;;;;;;;-139.48;100.00;61774.03;4975712;28;20049;-69
2021/10/15 05:02:08;;;;;;;21.75;14.85;;;;;;;-139.48;100.00;61774.03;4975632;28;20046;-69
2021/10/15 05:04:52;;;;;;;21.17;14.43;;;;;;;-139.48;100.00;61774.03;4975755;28;20447;-69
2021/10/15 05:07:36;;;;;;;22.80;15.25;;;;;;;-139.48;100.00;61774.03;4976387;28;20468;-69
2021/10/15 05:10:21;;;;;;;21.05;13.48;;;;;;;-139.48;100.00;61774.03;4976450;28;20057;-68
2021/10/15 05:13:05;;;;;;;24.08;14.60;;;;;;;-139.48;100.00;61774.03;4975335;28;20054;-69
2021/10/15 05:15:49;;;;;;;21.13;14.20;;;;;;;-139.48;100.00;61774.03;4975059;28;20096;-68
2021/10/15 05:18:33;;;;;;;20.17;13.40;;;;;;;-139.48;100.00;61774.03;4961396;28;20090;-69
2021/10/15 05:21:17;;;;;;;26.83;14.50;;;;;;;-139.48;100.00;61774.03;4961865;28;20053;-69
2021/10/15 05:24:02;;;;;;;21.40;14.38;;;;;;;-139.48;100.00;61774.03;4975284;28;20138;-69
2021/10/15 05:26:45;;;;;;;23.05;14.02;;;;;;;-139.48;100.00;61774.03;4961166;28;20523;-69
2021/10/15 05:29:29;;;;;;;22.63;14.15;;;;;;;-139.48;100.00;61774.03;4961592;28;20052;-69
2021/10/15 05:32:17;;;;;;;23.23;14.48;;;;;;;-139.48;100.00;61774.03;4961398;28;20423;-69
2021/10/15 05:35:02;;;;;;;21.45;13.93;;;;;;;-139.48;100.00;61774.03;4961211;28;20511;-69
2021/10/15 05:37:46;;;;;;;21.63;14.27;;;;;;;-139.48;100.00;61774.03;4974984;28;20108;-69
2021/10/15 05:40:30;;;;;;;;;;;;;;;-139.48;100.00;61774.03;4975338;28;20117;-69
2021/10/15 05:43:14;;;;;;;21.80;13.27;;;;;;;-139.48;100.00;61774.03;4974787;28;19952;-69
2021/10/15 05:45:58;;;;;;;21.40;14.10;;;;;;;-139.48;100.00;61774.03;4975674;28;20115;-69
2021/10/15 05:48:42;;;;;;;26.13;15.05;;;;;;;-139.48;100.00;61774.03;4975519;28;20061;-69
2021/10/15 05:51:26;;;;;;;23.90;15.52;;;;;;;-139.48;100.00;61774.03;4975478;28;20046;-69
2021/10/15 05:54:33;;;;;;;22.63;15.05;;;;;;;-139.48;100.00;61774.03;4974702;28;20050;-69
2021/10/15 06:00:03;;;;;;;21.27;13.90;;;;;;;-139.48;100.00;61774.03;4974874;28;20452;-69
2021/10/15 06:02:47;;;;;;;21.60;14.43;;;;;;;-139.48;100.00;61774.03;4960521;28;20464;-69
2021/10/15 06:14:38;;;;;;;21.38;14.02;;;;;;;-139.48;100.00;61774.03;4975268;28;20101;-69
2021/10/15 06:17:23;;;;;;;21.98;14.07;;;;;;;-139.48;100.00;61774.03;4974659;28;20109;-69
2021/10/15 06:20:07;;;;;;;21.33;14.48;;;;;;;-139.48;100.00;61774.03;4973969;28;20070;-69
2021/10/15 06:22:51;;;;;;;19.02;13.75;;;;;;;-139.48;100.00;61774.03;4974168;28;20412;-69
2021/10/15 06:25:35;;;;;;;24.50;14.77;;;;;;;-139.48;100.00;61774.03;4960121;28;20057;-69
2021/10/15 06:28:19;;;;;;;20.15;13.65;;;;;;;-139.48;100.00;61774.03;4974170;28;20057;-69
2021/10/15 06:31:03;;;;;;;24.45;14.05;;;;;;;-139.48;100.00;61774.03;4974670;28;20061;-69
2021/10/15 06:33:47;;;;;;;20.27;13.27;;;;;;;-139.48;100.00;61774.03;4974077;28;20054;-69
2021/10/15 06:36:31;;;;;;;23.00;14.00;;;;;;;-139.48;100.00;61774.03;4974909;28;20503;-69
2021/10/15 06:39:15;;;;;;;20.67;13.25;;;;;;;-139.48;100.00;61774.03;4974795;28;20166;-69
2021/10/15 06:41:59;;;;;;;22.13;14.60;;;;;;;-139.48;100.00;61774.03;4960272;28;20085;-69
2021/10/15 06:44:43;;;;;;;24.30;14.45;;;;;;;-139.48;100.00;61774.03;4974166;28;20101;-69
2021/10/15 06:47:28;;;;;;;17.70;12.85;;;;;;;-139.48;100.00;61774.03;4974875;28;20045;-69
2021/10/15 06:50:12;;;;;;;24.55;14.50;;;;;;;-139.48;100.00;61774.03;4960569;28;20522;-69
2021/10/15 06:52:57;;;;;;;21.05;13.57;;;;;;;-139.48;100.00;61774.03;4973709;28;20563;-69
2021/10/15 06:55:40;;;;;;;18.42;12.68;;;;;;;-139.48;100.00;61774.03;4974423;28;20054;-69
2021/10/15 06:58:24;;;;;;;21.48;14.43;;;;;;;-139.48;100.00;61774.03;4974425;28;20069;-69
2021/10/15 07:01:08;;;;;;;19.52;13.10;;;;;;;-139.48;100.00;61774.03;4973706;28;20101;-69
2021/10/15 07:03:53;;;;;;;19.55;13.20;;;;;;;-139.48;100.00;61774.03;4974671;28;20053;-69
2021/10/15 07:06:37;;;;;;;21.95;14.23;;;;;;;-139.48;100.00;61774.03;4959759;28;20050;-69
2021/10/15 07:09:21;;;;;;;20.52;13.60;;;;;;;-139.48;100.00;61774.03;4973902;28;20597;-69
2021/10/15 07:12:05;;;;;;;19.50;13.38;;;;;;;-139.48;100.00;61774.03;4959976;28;20053;-69
2021/10/15 07:14:49;;;;;;;19.70;13.00;;;;;;;-139.48;100.00;61774.03;4973480;28;20057;-69
2021/10/15 07:17:32;;;;;;;22.05;15.02;;;;;;;-139.48;100.00;61774.03;4959893;28;20097;-68
2021/10/15 07:20:16;;;;;;;20.98;13.93;;;;;;;-139.48;100.00;61774.03;4973195;28;20419;-68
2021/10/15 07:23:00;;;;;;;21.00;13.30;;;;;;;-139.48;100.00;61774.03;4973743;28;20130;-69
2021/10/15 07:25:45;;;;;;;20.27;13.98;;;;;;;-139.48;100.00;61774.03;4972999;28;20097;-69
2021/10/15 07:28:29;;;;;;;22.20;13.88;;;;;;;-139.48;100.00;61774.03;4976699;28;20523;-69
2021/10/15 07:31:13;;;;;;;19.38;13.60;;;;;;;-139.48;100.00;61774.03;4963566;28;20137;-68
2021/10/15 07:33:57;;;;;;;20.73;13.18;;;;;;;-139.48;100.00;61774.03;4963468;28;20194;-68
2021/10/15 07:36:41;;;;;;;18.92;13.63;;;;;;;-139.48;100.00;61774.03;4976969;28;20074;-69
2021/10/15 07:39:25;;;;;;;19.08;12.13;;;;;;;-139.48;100.00;61774.03;4977166;28;20471;-68
2021/10/15 07:42:09;;;;;;;;;;;;;;;-139.48;100.00;61774.03;4977432;28;20113;-68
2021/10/15 07:44:53;;;;;;;17.50;11.63;;;;;;;-139.48;100.00;61774.03;4977113;28;20020;-68
2021/10/15 07:47:37;;;;;;;16.65;12.20;;;;;;;-139.48;100.00;61774.03;4977031;28;20050;-68
2021/10/15 07:50:21;;;;;;;16.90;11.15;;;;;;;-139.48;100.00;61774.03;4977196;28;20090;-68
2021/10/15 07:53:05;;;;;;;18.45;10.82;;;;;;;-139.48;100.00;61774.03;4962898;28;20058;-68
2021/10/15 07:55:49;;;;;;;16.70;11.55;;;;;;;-139.48;100.00;61774.03;4976572;28;20101;-68
2021/10/15 07:58:33;;;;;;;12.95;9.43;;;;;;;-139.48;100.00;61774.03;4976579;28;20046;-68
2021/10/15 08:01:17;;;;;;;15.70;10.35;;;;;;;-139.48;100.00;61774.03;4977410;28;20057;-68
2021/10/15 08:04:01;;;;;;;13.45;9.85;;;;;;;-139.48;100.00;61774.03;4976782;28;20053;-68
2021/10/15 08:06:45;;;;;;;14.25;9.68;;;;;;;-139.48;100.00;61774.03;4990471;28;20081;-68
2021/10/15 08:09:30;;;;;;;16.08;10.80;;;;;;;-139.48;100.00;61774.03;4976628;28;20082;-68
2021/10/15 08:12:14;;;;;;;13.85;10.52;;;;;;;-139.48;100.00;61774.03;4976485;28;20049;-68
2021/10/15 08:14:58;;;;;;;16.95;9.95;;;;;;;-139.48;100.00;61774.03;4976235;28;20053;-68
2021/10/15 08:17:43;;;;;;;15.20;9.45;;;;;;;-139.48;100.00;61774.03;4977411;28;20053;-68
2021/10/15 08:20:27;;;;;;;14.43;9.90;;;;;;;-139.48;100.00;61774.03;4976190;28;20418;-68
2021/10/15 08:23:11;;;;;;;18.88;10.73;;;;;;;-139.48;100.00;61774.03;4990151;28;20045;-69
2021/10/15 08:25:57;;;;;;;14.52;9.75;;;;;;;-139.48;100.00;61774.03;4976303;28;20415;-68
2021/10/15 08:28:42;;;;;;;14.73;10.35;;;;;;;-139.48;100.00;61774.03;4976052;28;20049;-68
2021/10/15 08:31:27;;;;;;;12.40;9.20;;;;;;;-139.48;100.00;61774.03;4962170;28;20054;-68
2021/10/15 08:34:13;;;;;;;11.45;8.68;;;;;;;-139.48;100.00;61774.03;4975903;28;20113;-68
2021/10/15 08:36:57;;;;;;;12.05;8.77;;;;;;;-139.48;100.00;61774.03;4976808;28;20105;-69
2021/10/15 08:39:41;;;;;;;15.88;9.05;;;;;;;-139.48;100.00;61774.03;4988828;28;20067;-69
2021/10/15 08:42:25;;;;;;;13.55;9.02;;;;;;;-139.48;100.00;61774.03;4976965;28;20182;-69
2021/10/15 08:45:09;;;;;;;12.38;8.27;;;;;;;-139.48;100.00;61774.03;4989446;28;20049;-69
2021/10/15 08:47:53;;;;;;;10.88;8.55;;;;;;;-139.48;100.00;61774.03;4975935;28;20151;-69
2021/10/15 08:50:37;;;;;;;11.98;7.95;;;;;;;-139.48;100.00;61774.03;4975868;28;20093;-69
2021/10/15 08:53:22;;;;;;;12.05;8.57;;;;;;;-139.48;100.00;61774.03;4975786;28;20125;-69
2021/10/15 08:56:06;;;;;;;15.73;8.85;;;;;;;-139.48;100.00;61774.03;4988984;28;20057;-69
2021/10/15 08:58:56;;;;;;;11.18;7.72;;;;;;;-139.48;100.00;61774.03;4989398;28;20100;-68
2021/10/15 09:01:48;;;;;;;10.80;7.97;;;;;;;-139.48;100.00;61774.03;4975619;28;20045;-68
2021/10/15 09:04:51;;;;;;;11.65;7.00;;;;;;;-139.48;100.00;61774.03;4988941;28;20101;-68
2021/10/15 09:07:35;;;;;;;11.20;7.00;;;;;;;-139.48;100.00;61774.03;4975509;28;20049;-69
2021/10/15 09:10:21;;;;;;;9.30;7.03;;;;;;;-139.48;100.00;61774.03;4989252;28;20058;-69
2021/10/15 09:13:20;;;;;;;10.80;6.22;;;;;;;-139.48;100.00;61774.03;4989553;28;20046;-68
2021/10/15 09:16:06;;;;;;;12.40;5.53;;;;;;;-139.48;100.00;61774.03;4975079;28;20130;-69
2021/10/15 09:18:50;;;;;;;8.38;5.68;;;;;;;-139.48;100.00;61774.03;4988439;28;20046;-69
2021/10/15 09:21:34;;;;;;;9.50;5.88;;;;;;;-139.48;100.00;61774.03;4988977;28;20069;-69
2021/10/15 09:24:26;;;;;;;;;;;;;;;-139.48;100.00;61774.03;4989279;28;20072;-68
2021/10/15 09:27:40;;;;;;;11.15;5.72;;;;;;;-139.48;100.00;61774.03;4974978;28;20002;-69
2021/10/15 09:30:28;;;;;;;7.63;5.85;;;;;;;-139.48;100.00;61774.03;4975044;28;20058;-68
2021/10/15 09:33:12;;;;;;;9.05;5.72;;;;;;;-139.48;100.00;61774.03;4974893;28;20049;-68
2021/10/15 09:36:06;;;;;;;8.38;6.00;;;;;;;-139.48;100.00;61774.03;4975056;28;20175;-68
2021/10/15 09:38:51;;;;;;;10.23;5.88;;;;;;;-139.48;100.00;61774.03;4974800;28;20052;-69
2021/10/15 09:41:37;;;;;;;10.00;6.30;;;;;;;-139.48;100.00;61774.03;4974500;28;20097;-69
2021/10/15 09:44:34;;;;;;;8.93;5.28;;;;;;;-139.48;100.00;61774.03;4975586;28;20049;-69
2021/10/15 09:47:24;;;;;;;6.90;5.38;;;;;;;-139.48;100.00;61774.03;4974730;28;20081;-69
2021/10/15 09:50:09;;;;;;;8.38;5.30;;;;;;;-139.48;100.00;61774.03;4974924;28;20101;-69
2021/10/15 09:52:56;;;;;;;10.55;5.20;;;;;;;-139.48;100.00;61774.03;4974331;28;20089;-69
2021/10/15 09:55:42;;;;;;;7.68;5.18;;;;;;;-139.48;100.00;61774.03;4974411;28;20420;-69
2021/10/15 09:58:26;;;;;;;9.82;5.50;;;;;;;-139.48;100.00;61774.03;4974631;28;20058;-68
2021/10/15 10:01:10;;;;;;;6.60;5.03;;;;;;;-139.48;100.00;61774.03;4974511;28;20097;-68
2021/10/15 10:03:54;;;;;;;6.25;5.15;;;;;;;-139.48;100.00;61774.03;4988095;28;20058;-68
2021/10/15 10:06:38;;;;;;;5.93;4.93;;;;;;;-139.48;100.00;61774.03;4987898;28;20053;-69
2021/10/15 10:09:22;;;;;;;6.35;5.00;;;;;;;-139.48;100.00;61774.03;4974421;28;20049;-69
2021/10/15 10:12:06;;;;;;;;;;;;;;;-139.48;100.00;61774.03;4974400;28;20082;-68
2021/10/15 10:14:50;;;;;;;5.55;4.70;;;;;;;-139.48;100.00;61774.03;4975024;28;19929;-69
2021/10/15 10:17:39;;;;;;;8.68;4.57;;;;;;;-139.48;100.00;61774.03;4975299;28;20105;-69
2021/10/15 10:20:27;;;;;;;5.85;4.15;;;;;;;-139.48;100.00;61774.03;4974131;28;20050;-69
2021/10/15 10:23:23;;;;;;;4.47;3.55;;;;;;;-139.48;100.00;61774.03;4974160;28;20416;-68
2021/10/15 10:26:09;;;;;;;8.68;4.72;;;;;;;-139.48;100.00;61774.03;4974001;28;20404;-69
2021/10/15 10:29:05;;;;;;;5.60;4.70;;;;;;;-139.48;100.00;61774.03;4974068;28;20539;-69
2021/10/15 10:31:52;;;;;;;4.63;4.18;;;;;;;-139.48;100.00;61774.03;4973687;28;20097;-68
2021/10/15 10:34:36;;;;;;;7.35;4.00;;;;;;;-139.48;100.00;61774.03;4974000;28;20101;-69
2021/10/15 10:37:21;;;;;;;6.35;4.65;;;;;;;-139.48;100.00;61774.03;4987300;28;20077;-69
2021/10/15 10:40:09;;;;;;;5.47;4.63;;;;;;;-139.48;100.00;61774.03;4973941;28;20054;-69
2021/10/15 10:43:04;;;;;;;7.85;4.63;;;;;;;-139.48;100.00;61774.03;4973862;28;20053;-69
2021/10/15 10:46:10;;;;;;;7.80;5.03;;;;;;;-139.48;100.00;61774.03;4973547;28;20481;-69
2021/10/15 10:48:54;;;;;;;6.47;5.07;;;;;;;-139.48;100.00;61774.03;4959798;28;20049;-69
2021/10/15 10:51:39;;;;;;;7.72;5.20;;;;;;;-139.48;100.00;61774.03;4973286;28;20073;-69
2021/10/15 10:54:26;;;;;;;9.77;5.57;;;;;;;-139.48;100.00;61774.03;4987749;28;20057;-69
2021/10/15 10:57:16;;;;;;;6.00;5.40;;;;;;;-139.48;100.00;61774.03;4973325;28;20065;-69
2021/10/15 11:00:24;;;;;;;8.98;5.57;;;;;;;-139.48;100.00;61774.03;4959983;28;20431;-69
2021/10/15 11:03:08;;;;;;;9.05;5.72;;;;;;;-139.48;100.00;61774.03;4972844;28;20085;-69
2021/10/15 11:05:52;;;;;;;6.68;5.15;;;;;;;-139.48;100.00;61774.03;4986921;28;20093;-69
2021/10/15 11:08:36;;;;;;;5.90;5.00;;;;;;;-139.48;100.00;61774.03;4973493;28;20049;-69
2021/10/15 11:11:21;;;;;;;7.22;5.22;;;;;;;-139.48;100.00;61774.03;4986989;28;20137;-69
2021/10/15 11:14:05;;;;;;;9.07;5.18;;;;;;;-139.48;100.00;61774.03;4974703;28;20053;-69
2021/10/15 11:16:50;;;;;;;8.85;5.22;;;;;;;-139.48;100.00;61774.03;4974712;28;20526;-68
2021/10/15 11:19:34;;;;;;;10.20;5.40;;;;;;;-139.48;100.00;61774.03;4974450;28;20133;-69
2021/10/15 11:22:20;;;;;;;6.72;5.10;;;;;;;-139.48;100.00;61774.03;4973390;28;20097;-69
2021/10/15 11:25:06;;;;;;;7.18;5.40;;;;;;;-139.48;100.00;61774.03;4959697;28;20570;-69
2021/10/15 11:27:51;;;;;;;12.63;4.88;;;;;;;-139.48;100.00;61774.03;4959892;28;20053;-69
2021/10/15 11:30:42;;;;;;;11.73;5.95;;;;;;;-139.48;100.00;61774.03;4959833;28;20054;-69
2021/10/15 11:33:26;;;;;;;6.93;5.40;;;;;;;-139.48;100.00;61774.03;4973991;28;20053;-69
2021/10/15 11:36:10;;;;;;;7.07;5.50;;;;;;;-139.48;100.00;61774.03;4987032;28;20054;-68
2021/10/15 11:39:01;;;;;;;6.82;5.45;;;;;;;-139.48;100.00;61774.03;4974274;28;20054;-69
2021/10/15 11:41:49;;;;;;;10.60;5.95;;;;;;;-139.48;100.00;61774.03;4986948;28;20066;-69
2021/10/15 11:44:37;;;;;;;6.38;5.13;;;;;;;-139.48;100.00;61774.03;4973047;28;20117;-69
2021/10/15 11:47:21;;;;;;;6.63;4.93;;;;;;;-139.48;100.00;61774.03;4973908;28;20057;-69
2021/10/15 11:50:05;;;;;;;8.73;5.10;;;;;;;-139.48;100.00;61774.03;4974272;28;20085;-69
2021/10/15 11:52:56;;;;;;;7.43;5.80;;;;;;;-139.48;100.00;61774.03;4972873;28;20054;-69
2021/10/15 11:55:41;;;;;;;9.40;5.55;;;;;;;-139.48;100.00;61774.03;4972840;28;20141;-69
2021/10/15 11:58:31;;;;;;;6.93;5.28;;;;;;;-139.48;100.00;61774.03;4959429;28;20574;-69
2021/10/15 12:01:29;;;;;;;7.40;5.32;;;;;;;-139.48;100.00;61774.03;4972796;28;20057;-69
2021/10/15 12:04:14;;;;;;;8.27;5.13;;;;;;;-139.48;100.00;61774.03;4973128;28;20396;-69
2021/10/15 12:06:58;;;;;;;6.78;4.80;;;;;;;-139.48;100.00;61774.03;4972546;28;20464;-69
2021/10/15 12:09:41;;;;;;;5.43;4.25;;;;;;;-139.48;100.00;61774.03;4986457;28;20368;-68
2021/10/15 12:12:25;;;;;;;8.07;5.00;;;;;;;-139.48;100.00;61774.03;4972904;28;20070;-69
2021/10/15 12:15:09;;;;;;;5.60;4.60;;;;;;;-139.48;100.00;61774.03;4975536;28;20081;-69
2021/10/15 12:18:03;;;;;;;;;;;;;;;-139.48;100.00;61774.03;4990344;28;20061;-68
2021/10/15 12:20:47;;;;;;;6.03;4.50;;;;;;;-139.48;100.00;61774.03;4976394;28;19921;-68
2021/10/15 12:23:49;;;;;;;5.90;4.50;;;;;;;-139.48;100.00;61774.03;4990443;28;20046;-69
2021/10/15 12:26:33;;;;;;;7.32;4.35;;;;;;;-139.48;100.00;61774.03;4976071;28;20050;-69
2021/10/15 12:29:28;;;;;;;6.35;4.53;;;;;;;-139.48;100.00;61774.03;4977240;28;20057;-69
2021/10/15 12:32:26;;;;;;;5.40;3.60;;;;;;;-139.48;100.00;61774.03;4962361;28;20046;-69
2021/10/15 12:35:13;;;;;;;6.70;3.97;;;;;;;-139.48;100.00;61774.03;4975811;28;20510;-69